Time;durP1;ratioP1;P1;durP2;ratioP2;P2;SDS_P1;SDS_P2;PMS_P1;PMS_P2;Temp;Humidity;BMP_temperature;BMP_pressure;BME280_temperature;BME280_humidity;BME280_pressure;Samples;Min_cycle;Max_cycle;Signal;HPM_P1;HPM_P2
2021/12/03 00:02:21;;;;;;;7.57;5.30;;;3.80;99.90;;;;;;5052269;28;20569;-68
2021/12/03 00:04:47;;;;;;;4.90;4.15;;;3.80;99.90;;;;;;5051846;28;20195;-67
2021/12/03 00:07:15;;;;;;;7.05;4.85;;;3.80;99.90;;;;;;5052070;28;20653;-67
2021/12/03 00:09:42;;;;;;;2.47;2.28;;;3.80;99.90;;;;;;5051962;28;20199;-68
2021/12/03 00:12:10;;;;;;;8.77;5.50;;;3.70;99.90;;;;;;5051782;28;20315;-67
2021/12/03 00:14:37;;;;;;;6.68;4.60;;;3.70;99.90;;;;;;5051731;28;20210;-67
2021/12/03 00:17:05;;;;;;;7.18;4.82;;;3.70;99.90;;;;;;5052029;28;20322;-68
2021/12/03 00:19:32;;;;;;;5.50;4.13;;;3.60;99.90;;;;;;5052068;28;20220;-69
2021/12/03 00:21:59;;;;;;;5.45;4.70;;;3.50;99.90;;;;;;5051784;28;20228;-67
2021/12/03 00:24:26;;;;;;;7.28;4.30;;;3.50;99.90;;;;;;5051284;28;20203;-68
2021/12/03 00:26:52;;;;;;;8.00;4.80;;;3.50;99.90;;;;;;5052120;28;20207;-68
2021/12/03 00:29:19;;;;;;;7.90;5.28;;;3.50;99.90;;;;;;5052042;28;20205;-68
2021/12/03 00:31:46;;;;;;;7.05;5.22;;;3.50;99.90;;;;;;5051756;28;20765;-68
2021/12/03 00:34:14;;;;;;;6.18;5.57;;;3.50;99.90;;;;;;5052980;28;20664;-68
2021/12/03 00:36:41;;;;;;;8.20;5.90;;;3.50;99.90;;;;;;5055392;28;20208;-68
2021/12/03 00:39:08;;;;;;;6.75;5.47;;;3.50;99.90;;;;;;5055400;28;20223;-67
2021/12/03 00:41:41;;;;;;;7.72;5.57;;;3.50;99.90;;;;;;5055256;28;20743;-68
2021/12/03 00:44:08;;;;;;;9.45;6.35;;;3.50;99.90;;;;;;5055258;28;20214;-68
2021/12/03 00:46:35;;;;;;;11.25;6.35;;;3.50;99.90;;;;;;5055380;28;20265;-67
2021/12/03 00:49:02;;;;;;;7.10;5.35;;;3.50;99.90;;;;;;5055179;28;20684;-68
2021/12/03 00:51:30;;;;;;;9.10;6.03;;;3.50;99.90;;;;;;5055195;28;20229;-67
2021/12/03 00:53:57;;;;;;;10.30;5.70;;;3.40;99.90;;;;;;5054981;28;20737;-67
2021/12/03 00:56:24;;;;;;;7.15;5.63;;;3.50;99.90;;;;;;5055138;28;20207;-67
2021/12/03 00:58:51;;;;;;;8.27;5.47;;;3.40;99.90;;;;;;5055164;28;20226;-67
2021/12/03 01:01:18;;;;;;;9.35;5.85;;;3.40;99.90;;;;;;5054971;28;20229;-67
2021/12/03 01:03:45;;;;;;;7.55;6.35;;;3.50;99.90;;;;;;5054902;28;20207;-67
2021/12/03 01:06:12;;;;;;;7.75;6.10;;;3.50;99.90;;;;;;5054962;28;20200;-68
2021/12/03 01:08:40;;;;;;;10.02;7.55;;;3.50;99.90;;;;;;5055135;28;20199;-67
2021/12/03 01:11:09;;;;;;;9.45;6.50;;;3.40;99.90;;;;;;5055206;28;20732;-72
2021/12/03 01:13:38;;;;;;;7.78;6.30;;;3.40;99.90;;;;;;5054671;28;20203;-67
2021/12/03 01:16:05;;;;;;;9.07;6.65;;;3.50;99.90;;;;;;5054643;28;20306;-68
2021/12/03 01:18:33;;;;;;;10.13;6.30;;;3.50;99.90;;;;;;5054697;28;20737;-67
2021/12/03 01:21:01;;;;;;;7.65;6.28;;;3.40;99.90;;;;;;5054934;28;20223;-67
2021/12/03 01:23:28;;;;;;;7.88;5.70;;;3.40;99.90;;;;;;5054852;28;20218;-68
2021/12/03 01:25:57;;;;;;;7.03;5.53;;;3.40;99.90;;;;;;5054750;28;20203;-68
2021/12/03 01:28:26;;;;;;;7.72;5.47;;;3.40;99.90;;;;;;5054741;28;20568;-69
2021/12/03 01:30:53;;;;;;;7.82;6.30;;;3.40;99.90;;;;;;5054388;28;20319;-69
2021/12/03 01:33:20;;;;;;;9.30;5.97;;;3.30;99.90;;;;;;5054393;28;20207;-68
2021/12/03 01:35:48;;;;;;;8.63;5.95;;;3.30;99.90;;;;;;5054627;28;20199;-68
2021/12/03 01:38:15;;;;;;;7.68;6.00;;;3.30;99.90;;;;;;5054673;28;20601;-68
2021/12/03 01:40:41;;;;;;;7.80;6.55;;;3.30;99.90;;;;;;5054337;28;20314;-69
2021/12/03 01:43:14;;;;;;;9.55;6.05;;;3.30;99.90;;;;;;5054054;28;20298;-69
2021/12/03 01:45:42;;;;;;;10.18;6.07;;;3.30;99.90;;;;;;5053827;28;20218;-67
2021/12/03 01:48:09;;;;;;;6.88;5.55;;;3.30;99.90;;;;;;5054856;28;20195;-68
2021/12/03 01:50:38;;;;;;;9.18;6.82;;;3.30;99.90;;;;;;5054121;28;20227;-68
2021/12/03 01:53:06;;;;;;;7.38;6.05;;;3.40;99.90;;;;;;5054101;28;20207;-67
2021/12/03 01:55:34;;;;;;;8.70;6.55;;;3.40;99.90;;;;;;5054248;28;20565;-69
2021/12/03 01:58:01;;;;;;;8.50;5.78;;;3.30;99.90;;;;;;5054002;28;20223;-69
2021/12/03 02:00:32;;;;;;;7.40;5.90;;;3.30;99.90;;;;;;5054513;28;20231;-68
2021/12/03 02:03:00;;;;;;;9.50;6.25;;;3.20;99.90;;;;;;5054057;28;20208;-69
2021/12/03 02:05:27;;;;;;;7.97;6.32;;;3.20;99.90;;;;;;5053819;28;20204;-68
2021/12/03 02:07:54;;;;;;;8.70;6.60;;;3.20;99.90;;;;;;5054187;28;20207;-69
2021/12/03 02:10:23;;;;;;;7.78;5.93;;;3.20;99.90;;;;;;5053878;28;20227;-68
2021/12/03 02:12:50;;;;;;;9.55;6.82;;;3.10;99.90;;;;;;5053547;28;20216;-67
2021/12/03 02:15:17;;;;;;;7.95;6.50;;;3.10;99.90;;;;;;5053614;28;20208;-67
2021/12/03 02:17:45;;;;;;;9.75;6.75;;;3.10;99.90;;;;;;5053825;28;20199;-67
2021/12/03 02:20:13;;;;;;;11.93;7.03;;;3.10;99.90;;;;;;5053708;28;20650;-68
2021/12/03 02:22:42;;;;;;;8.77;7.10;;;3.20;99.90;;;;;;5053223;28;20211;-68
2021/12/03 02:25:12;;;;;;;8.80;7.40;;;3.20;99.90;;;;;;5053287;28;20210;-67
2021/12/03 02:27:39;;;;;;;9.15;6.72;;;3.20;99.90;;;;;;5053771;28;20295;-68
2021/12/03 02:30:08;;;;;;;8.80;7.18;;;3.20;99.90;;;;;;5053663;28;20202;-68
2021/12/03 02:32:35;;;;;;;9.68;7.13;;;3.10;99.90;;;;;;5053082;28;20199;-68
2021/12/03 02:35:03;;;;;;;11.07;7.75;;;3.10;99.90;;;;;;5053283;28;20210;-69
2021/12/03 02:37:30;;;;;;;8.45;6.55;;;3.10;99.90;;;;;;5053366;28;20203;-68
2021/12/03 02:39:58;;;;;;;8.27;6.75;;;3.10;99.90;;;;;;5053448;28;20314;-67
2021/12/03 02:42:25;;;;;;;11.25;7.80;;;3.10;99.90;;;;;;5052773;28;20207;-68
2021/12/03 02:44:52;;;;;;;8.68;6.78;;;3.10;99.90;;;;;;5053462;28;20298;-69
2021/12/03 02:47:19;;;;;;;10.60;7.20;;;3.00;99.90;;;;;;5053525;28;20203;-67
2021/12/03 02:49:46;;;;;;;9.20;7.43;;;3.10;99.90;;;;;;5053374;28;20206;-67
2021/12/03 02:52:13;;;;;;;8.45;6.22;;;3.00;99.90;;;;;;5054105;28;20322;-68
2021/12/03 02:54:40;;;;;;;12.02;7.50;;;3.00;99.90;;;;;;5053968;28;20294;-67
2021/12/03 02:57:08;;;;;;;11.70;7.75;;;3.00;99.90;;;;;;5053468;28;20669;-68
2021/12/03 02:59:35;;;;;;;9.52;7.20;;;3.00;99.90;;;;;;5053772;28;20234;-68
2021/12/03 03:02:03;;;;;;;9.52;6.57;;;3.00;99.90;;;;;;5054025;28;20219;-68
2021/12/03 03:04:30;;;;;;;10.00;7.22;;;3.00;99.90;;;;;;5053778;28;20294;-68
2021/12/03 03:06:57;;;;;;;7.93;5.85;;;3.00;99.90;;;;;;5053628;28;20200;-67
2021/12/03 03:09:24;;;;;;;9.13;6.75;;;3.00;99.90;;;;;;5053636;28;20205;-68
2021/12/03 03:11:51;;;;;;;9.45;7.05;;;3.00;99.90;;;;;;5053707;28;20262;-68
2021/12/03 03:14:20;;;;;;;9.43;7.35;;;2.90;99.90;;;;;;5053479;28;20258;-68
2021/12/03 03:16:48;;;;;;;9.88;6.85;;;2.90;99.90;;;;;;5053277;28;20740;-68
2021/12/03 03:19:16;;;;;;;9.48;7.20;;;2.90;99.90;;;;;;5053480;28;20235;-68
2021/12/03 03:21:44;;;;;;;10.60;7.40;;;2.90;99.90;;;;;;5053678;28;20226;-68
2021/12/03 03:24:12;;;;;;;9.70;7.00;;;2.90;99.90;;;;;;5053783;28;20211;-68
2021/12/03 03:26:40;;;;;;;15.75;10.80;;;2.90;99.90;;;;;;5053340;28;20211;-68
2021/12/03 03:29:09;;;;;;;10.35;7.75;;;2.90;99.90;;;;;;5053581;28;20200;-68
2021/12/03 03:31:39;;;;;;;12.00;6.95;;;2.90;99.90;;;;;;5053280;28;20313;-68
2021/12/03 03:34:07;;;;;;;16.92;10.45;;;2.90;99.90;;;;;;5053581;28;20390;-68
2021/12/03 03:36:35;;;;;;;12.00;7.80;;;2.90;99.90;;;;;;5053457;28;20199;-68
2021/12/03 03:39:03;;;;;;;10.23;7.25;;;2.90;99.90;;;;;;5053896;28;20226;-68
2021/12/03 03:41:30;;;;;;;9.15;6.80;;;2.90;99.90;;;;;;5053411;28;20230;-68
2021/12/03 03:43:57;;;;;;;8.95;7.05;;;2.90;99.90;;;;;;5053315;28;20680;-68
2021/12/03 03:46:25;;;;;;;8.48;6.82;;;3.00;99.90;;;;;;5052924;28;20238;-68
2021/12/03 03:48:53;;;;;;;10.32;6.95;;;3.00;99.90;;;;;;5053384;28;20201;-68
2021/12/03 03:51:21;;;;;;;10.13;7.40;;;3.00;99.90;;;;;;5053388;28;20223;-68
2021/12/03 03:53:47;;;;;;;17.40;7.22;;;3.00;99.90;;;;;;5053362;28;20569;-68
2021/12/03 03:56:14;;;;;;;10.15;6.35;;;3.00;99.90;;;;;;5053239;28;20200;-68
2021/12/03 03:58:42;;;;;;;8.75;6.80;;;3.10;99.90;;;;;;5053231;28;20224;-68
2021/12/03 04:01:09;;;;;;;8.93;6.53;;;3.10;99.90;;;;;;5052888;28;20230;-68
2021/12/03 04:03:36;;;;;;;8.88;7.30;;;3.10;99.90;;;;;;5053302;28;20306;-68
2021/12/03 04:06:04;;;;;;;17.13;11.43;;;3.20;99.90;;;;;;5052874;28;20299;-68
2021/12/03 04:08:31;;;;;;;9.20;6.78;;;3.20;99.90;;;;;;5053520;28;20208;-68
2021/12/03 04:11:00;;;;;;;9.18;6.65;;;3.20;99.90;;;;;;5057227;28;20223;-68
2021/12/03 04:13:27;;;;;;;9.18;6.43;;;3.30;99.90;;;;;;5057149;28;20207;-68
2021/12/03 04:15:54;;;;;;;9.18;6.70;;;3.30;99.90;;;;;;5056864;28;20214;-68
2021/12/03 04:18:22;;;;;;;11.48;7.47;;;3.30;99.90;;;;;;5056864;28;20676;-68
2021/12/03 04:20:49;;;;;;;8.93;6.85;;;3.40;99.90;;;;;;5057447;28;20223;-68
2021/12/03 04:23:19;;;;;;;9.35;6.80;;;3.40;99.90;;;;;;5057043;28;20203;-68
2021/12/03 04:25:46;;;;;;;9.45;7.50;;;3.40;99.90;;;;;;5056628;28;20207;-68
2021/12/03 04:28:13;;;;;;;9.40;6.60;;;3.40;99.90;;;;;;5056867;28;20200;-68
2021/12/03 04:30:40;;;;;;;9.30;7.03;;;3.40;99.90;;;;;;5056832;28;20225;-68
2021/12/03 04:33:07;;;;;;;10.18;7.45;;;3.50;99.90;;;;;;5056801;28;20203;-68
2021/12/03 04:35:35;;;;;;;10.13;6.93;;;3.50;99.90;;;;;;5056585;28;20211;-68
2021/12/03 04:38:02;;;;;;;10.05;7.85;;;3.50;99.90;;;;;;5056521;28;20572;-68
2021/12/03 04:40:31;;;;;;;10.85;7.15;;;3.50;99.90;;;;;;5056460;28;20314;-68
2021/12/03 04:42:58;;;;;;;9.52;7.68;;;3.60;99.90;;;;;;5056630;28;20203;-68
2021/12/03 04:45:27;;;;;;;12.98;7.93;;;3.60;99.90;;;;;;5056125;28;20302;-68
2021/12/03 04:47:55;;;;;;;11.05;7.55;;;3.60;99.90;;;;;;5056548;28;20298;-68
2021/12/03 04:50:24;;;;;;;10.25;8.07;;;3.70;99.90;;;;;;5056419;28;20220;-68
2021/12/03 04:52:52;;;;;;;9.00;7.22;;;3.70;99.90;;;;;;5056414;28;20657;-68
2021/12/03 04:55:20;;;;;;;10.07;7.47;;;3.60;99.90;;;;;;5056085;28;20207;-68
2021/12/03 04:57:50;;;;;;;12.52;8.45;;;3.70;99.90;;;;;;5056305;28;20225;-68
2021/12/03 05:00:20;;;;;;;10.70;8.23;;;3.70;99.90;;;;;;5056123;28;20315;-68
2021/12/03 05:02:47;;;;;;;11.65;7.57;;;3.70;99.90;;;;;;5056278;28;20200;-68
2021/12/03 05:05:14;;;;;;;10.35;8.52;;;3.70;99.90;;;;;;5056157;28;20683;-68
2021/12/03 05:07:57;;;;;;;10.95;8.00;;;3.60;99.90;;;;;;5056122;28;20318;-68
2021/12/03 05:10:25;;;;;;;11.82;8.60;;;3.70;99.90;;;;;;5055822;28;20245;-68
2021/12/03 05:12:54;;;;;;;11.32;8.55;;;3.70;99.90;;;;;;5055831;28;20766;-68
2021/12/03 05:15:21;;;;;;;10.70;8.65;;;3.70;99.90;;;;;;5055652;28;20559;-68
2021/12/03 05:17:47;;;;;;;11.57;7.75;;;3.70;99.90;;;;;;5055917;28;20207;-68
2021/12/03 05:20:15;;;;;;;20.50;12.52;;;3.70;99.90;;;;;;5055239;28;20630;-68
2021/12/03 05:22:42;;;;;;;14.65;10.10;;;3.80;99.90;;;;;;5055529;28;20200;-68
2021/12/03 05:25:10;;;;;;;10.52;7.82;;;3.70;99.90;;;;;;5055583;28;20207;-68
2021/12/03 05:27:38;;;;;;;10.02;8.18;;;3.70;99.90;;;;;;5055638;28;20209;-68
2021/12/03 05:30:08;;;;;;;10.90;8.30;;;3.70;99.90;;;;;;5055566;28;20658;-68
2021/12/03 05:32:35;;;;;;;11.65;8.30;;;3.70;99.90;;;;;;5055730;28;20195;-68
2021/12/03 05:35:02;;;;;;;11.57;8.10;;;3.70;99.90;;;;;;5055500;28;20210;-68
2021/12/03 05:37:29;;;;;;;11.23;8.25;;;3.60;99.90;;;;;;5055605;28;20297;-68
2021/12/03 05:39:56;;;;;;;12.35;8.82;;;3.60;99.90;;;;;;5055395;28;20223;-68
2021/12/03 05:42:23;;;;;;;10.80;8.75;;;3.60;99.90;;;;;;5055581;28;20298;-67
2021/12/03 05:44:50;;;;;;;10.75;8.73;;;3.60;99.90;;;;;;5055251;28;20203;-68
2021/12/03 05:47:18;;;;;;;11.80;8.18;;;3.60;99.90;;;;;;5055374;28;20199;-68
2021/12/03 05:49:45;;;;;;;12.57;8.30;;;3.60;99.90;;;;;;5055433;28;20598;-68
2021/12/03 05:52:12;;;;;;;12.75;8.85;;;3.50;99.90;;;;;;5055303;28;20223;-68
2021/12/03 05:54:38;;;;;;;13.15;8.10;;;3.50;99.90;;;;;;5055354;28;20200;-68
2021/12/03 05:57:06;;;;;;;9.27;7.55;;;3.50;99.90;;;;;;5055057;28;20207;-68
2021/12/03 05:59:33;;;;;;;11.73;8.45;;;3.50;99.90;;;;;;5055032;28;20233;-68
2021/12/03 06:02:00;;;;;;;11.32;8.30;;;3.50;99.90;;;;;;5055102;28;20223;-68
2021/12/03 06:04:29;;;;;;;10.73;8.45;;;3.50;99.90;;;;;;5054929;28;20199;-68
2021/12/03 06:06:56;;;;;;;11.55;8.50;;;3.50;99.90;;;;;;5055048;28;20576;-67
2021/12/03 06:09:23;;;;;;;8.93;7.50;;;3.40;99.90;;;;;;5054825;28;20195;-68
2021/12/03 06:11:50;;;;;;;10.60;8.07;;;3.50;99.90;;;;;;5054865;28;20224;-68
2021/12/03 06:14:17;;;;;;;10.23;8.15;;;3.50;99.90;;;;;;5054827;28;20207;-68
2021/12/03 06:16:44;;;;;;;10.45;7.47;;;3.50;99.90;;;;;;5054409;28;20302;-68
2021/12/03 06:19:11;;;;;;;11.85;8.52;;;3.50;99.90;;;;;;5054765;28;20203;-68
2021/12/03 06:21:39;;;;;;;12.98;8.70;;;3.50;99.90;;;;;;5054741;28;20220;-68
2021/12/03 06:24:06;;;;;;;10.43;7.95;;;3.50;99.90;;;;;;5054662;28;20298;-68
2021/12/03 06:26:33;;;;;;;12.75;9.30;;;3.60;99.90;;;;;;5054577;28;20203;-68
2021/12/03 06:29:00;;;;;;;10.23;8.15;;;3.60;99.90;;;;;;5054611;28;20210;-68
2021/12/03 06:31:27;;;;;;;18.13;12.35;;;3.70;99.90;;;;;;5054540;28;20224;-68
2021/12/03 06:33:53;;;;;;;9.55;7.60;;;3.70;99.90;;;;;;5054475;28;20213;-68
2021/12/03 06:36:20;;;;;;;9.40;7.22;;;3.60;99.90;;;;;;5054411;28;20562;-68
2021/12/03 06:38:48;;;;;;;10.73;5.90;;;3.50;99.90;;;;;;5054415;28;20210;-68
2021/12/03 06:41:15;;;;;;;9.45;7.15;;;3.50;99.90;;;;;;5054077;28;20237;-68
2021/12/03 06:43:42;;;;;;;10.57;7.80;;;3.40;99.90;;;;;;5054109;28;20207;-68
2021/12/03 06:46:09;;;;;;;10.13;7.82;;;3.30;99.90;;;;;;5054136;28;20539;-68
2021/12/03 06:48:36;;;;;;;11.05;8.25;;;3.30;99.90;;;;;;5054622;28;20214;-67
2021/12/03 06:51:03;;;;;;;11.80;8.30;;;3.30;99.90;;;;;;5054010;28;20230;-68
2021/12/03 06:53:39;;;;;;;15.00;10.48;;;3.30;99.90;;;;;;5054324;28;20239;-68
2021/12/03 06:56:11;;;;;;;12.77;9.30;;;3.30;99.90;;;;;;5054107;28;20192;-68
2021/12/03 06:58:38;;;;;;;10.57;8.20;;;3.40;99.90;;;;;;5054105;28;20211;-68
2021/12/03 07:01:05;;;;;;;11.75;9.63;;;3.40;99.90;;;;;;5053901;28;20642;-67
2021/12/03 07:03:31;;;;;;;13.25;9.07;;;3.30;99.90;;;;;;5053831;28;20297;-68
2021/12/03 07:05:58;;;;;;;11.32;8.93;;;3.30;99.90;;;;;;5053594;28;20203;-68
2021/12/03 07:08:25;;;;;;;10.30;8.00;;;3.20;99.90;;;;;;5053821;28;20203;-68
2021/12/03 07:10:52;;;;;;;17.40;7.82;;;3.20;99.90;;;;;;5053912;28;20225;-68
2021/12/03 07:13:20;;;;;;;10.60;8.23;;;3.20;99.90;;;;;;5053851;28;20234;-67
2021/12/03 07:15:47;;;;;;;11.90;8.45;;;3.10;99.90;;;;;;5053349;28;20207;-68
2021/12/03 07:18:14;;;;;;;10.85;7.35;;;3.10;99.90;;;;;;5053733;28;20205;-67
2021/12/03 07:20:41;;;;;;;11.00;7.68;;;3.00;99.90;;;;;;5053492;28;20229;-68
2021/12/03 07:23:07;;;;;;;7.00;6.30;;;3.00;99.90;;;;;;5053701;28;20209;-67
2021/12/03 07:25:34;;;;;;;9.68;7.50;;;2.90;99.90;;;;;;5053557;28;20625;-67
2021/12/03 07:28:01;;;;;;;8.50;7.15;;;2.90;99.90;;;;;;5053772;28;20210;-68
2021/12/03 07:30:31;;;;;;;11.20;7.53;;;3.00;99.90;;;;;;5053335;28;20230;-67
2021/12/03 07:32:58;;;;;;;11.50;7.63;;;3.00;99.90;;;;;;5053711;28;20249;-68
2021/12/03 07:35:25;;;;;;;10.85;7.30;;;3.00;99.90;;;;;;5053229;28;20253;-67
2021/12/03 07:37:52;;;;;;;13.52;7.85;;;3.10;99.90;;;;;;5053555;28;20565;-68
2021/12/03 07:40:19;;;;;;;9.38;7.57;;;3.10;99.90;;;;;;5053112;28;20223;-68
2021/12/03 07:42:46;;;;;;;10.80;8.20;;;3.10;99.90;;;;;;5053548;28;20211;-68
2021/12/03 07:45:16;;;;;;;11.80;9.20;;;3.10;99.90;;;;;;5052623;28;20222;-68
2021/12/03 07:47:44;;;;;;;11.57;8.40;;;3.00;99.90;;;;;;5053558;28;20628;-67
2021/12/03 07:50:12;;;;;;;11.63;8.68;;;3.00;99.90;;;;;;5053085;28;20572;-68
2021/12/03 07:52:39;;;;;;;11.45;7.93;;;3.10;99.90;;;;;;5053454;28;20294;-68
2021/12/03 07:55:07;;;;;;;12.35;7.95;;;3.10;99.90;;;;;;5053148;28;20230;-68
2021/12/03 07:57:34;;;;;;;11.07;7.50;;;3.20;99.90;;;;;;5053384;28;20239;-68
2021/12/03 08:00:01;;;;;;;11.73;8.25;;;3.30;99.90;;;;;;5053112;28;20219;-68
2021/12/03 08:02:28;;;;;;;10.65;6.80;;;3.40;99.90;;;;;;5053300;28;20299;-68
2021/12/03 08:04:56;;;;;;;9.45;6.80;;;3.40;99.90;;;;;;5053191;28;20242;-68
2021/12/03 08:07:23;;;;;;;9.77;7.85;;;3.30;99.90;;;;;;5053052;28;20665;-68
2021/12/03 08:09:51;;;;;;;13.57;7.32;;;3.20;99.90;;;;;;5053424;28;20207;-68
2021/12/03 08:12:17;;;;;;;9.98;7.15;;;3.20;99.90;;;;;;5052982;28;20207;-68
2021/12/03 08:14:45;;;;;;;12.60;7.35;;;3.20;99.90;;;;;;5053071;28;20203;-69
2021/12/03 08:17:11;;;;;;;10.82;7.88;;;3.20;99.90;;;;;;5053072;28;20298;-68
2021/12/03 08:19:38;;;;;;;9.95;7.50;;;3.10;99.90;;;;;;5053747;28;20203;-68
2021/12/03 08:22:07;;;;;;;11.07;7.82;;;3.20;99.90;;;;;;5052738;28;20234;-68
2021/12/03 08:24:34;;;;;;;10.32;7.40;;;3.20;99.90;;;;;;5052904;28;20204;-68
2021/12/03 08:27:01;;;;;;;12.35;7.93;;;3.30;99.90;;;;;;5053094;28;20229;-68
2021/12/03 08:29:28;;;;;;;10.23;8.25;;;3.40;99.90;;;;;;5052906;28;20298;-68
2021/12/03 08:31:55;;;;;;;10.45;7.65;;;3.50;99.90;;;;;;5053003;28;20578;-68
2021/12/03 08:34:22;;;;;;;10.38;7.60;;;3.50;99.90;;;;;;5052849;28;20203;-68
2021/12/03 08:36:49;;;;;;;10.60;7.47;;;3.70;99.90;;;;;;5052988;28;20231;-68
2021/12/03 08:39:19;;;;;;;10.35;8.18;;;3.70;99.90;;;;;;5052911;28;20752;-68
2021/12/03 08:41:46;;;;;;;10.63;7.15;;;3.70;99.90;;;;;;5053235;28;20224;-68
2021/12/03 08:44:13;;;;;;;11.40;7.35;;;3.60;99.90;;;;;;5052904;28;20203;-68
2021/12/03 08:46:40;;;;;;;12.48;7.85;;;3.60;99.90;;;;;;5052764;28;20290;-68
2021/12/03 08:49:14;;;;;;;10.77;7.47;;;3.50;99.90;;;;;;5052893;28;20674;-68
2021/12/03 08:51:53;;;;;;;9.90;7.53;;;3.50;99.90;;;;;;5052865;28;20219;-68
2021/12/03 08:57:05;;;;;;;9.05;6.38;;;3.50;99.90;;;;;;5044591;28;20196;-68
2021/12/03 08:59:32;;;;;;;8.40;6.55;;;3.50;99.90;;;;;;5056374;28;20213;-67
2021/12/03 09:01:59;;;;;;;9.18;5.78;;;3.50;99.90;;;;;;5056229;28;20227;-68
2021/12/03 09:04:26;;;;;;;7.97;6.10;;;3.40;99.90;;;;;;5056085;28;20205;-68
2021/12/03 09:06:52;;;;;;;5.47;4.70;;;3.40;99.90;;;;;;5056157;28;20302;-68
2021/12/03 09:09:21;;;;;;;7.93;5.18;;;3.30;99.90;;;;;;5056091;28;20298;-68
2021/12/03 09:11:47;;;;;;;6.40;5.15;;;3.30;99.90;;;;;;5056126;28;20215;-68
2021/12/03 09:14:20;;;;;;;6.43;5.20;;;3.30;99.90;;;;;;5056091;28;20561;-68
2021/12/03 09:16:53;;;;;;;5.65;5.00;;;3.30;99.90;;;;;;5055799;28;20311;-68
2021/12/03 09:19:24;;;;;;;5.68;4.82;;;3.30;99.90;;;;;;5056016;28;20207;-68
2021/12/03 09:21:51;;;;;;;7.55;3.80;;;3.40;99.90;;;;;;5055596;28;20223;-68
2021/12/03 09:24:20;;;;;;;4.80;3.72;;;3.40;99.90;;;;;;5055658;28;20211;-68
2021/12/03 09:26:48;;;;;;;4.15;3.72;;;3.40;99.90;;;;;;5055614;28;20212;-68
2021/12/03 09:29:23;;;;;;;4.90;3.80;;;3.30;99.90;;;;;;5055809;28;20203;-68
2021/12/03 09:31:50;;;;;;;5.45;3.60;;;3.30;99.90;;;;;;5055648;28;20215;-68
2021/12/03 09:34:19;;;;;;;7.13;3.80;;;3.40;99.90;;;;;;5055600;28;20214;-68
2021/12/03 09:36:46;;;;;;;4.40;3.78;;;3.40;99.90;;;;;;5056239;28;20596;-68
2021/12/03 09:39:19;;;;;;;5.60;4.18;;;3.30;99.90;;;;;;5055636;28;20290;-68
2021/12/03 09:41:48;;;;;;;4.45;3.60;;;3.40;99.90;;;;;;5055223;28;20234;-68
2021/12/03 09:44:16;;;;;;;4.03;3.33;;;3.30;99.90;;;;;;5055565;28;20609;-68
2021/12/03 09:46:43;;;;;;;4.85;4.13;;;3.40;99.90;;;;;;5055267;28;20234;-68
2021/12/03 09:54:43;;;;;;;5.40;4.10;;;3.60;99.90;;;;;;5054988;28;20545;-68
2021/12/03 09:57:15;;;;;;;6.43;3.90;;;3.60;99.90;;;;;;5055227;28;20239;-68
2021/12/03 10:02:36;;;;;;;6.88;4.35;;;3.60;99.90;;;;;;5055371;28;20576;-68
2021/12/03 10:13:39;;;;;;;4.75;3.47;;;3.60;99.90;;;;;;5016454;28;20197;-68
2021/12/03 10:16:15;;;;;;;5.28;3.90;;;3.60;99.90;;;;;;5054644;28;20350;-68
2021/12/03 10:18:47;;;;;;;4.57;3.70;;;3.70;99.90;;;;;;5054905;28;20293;-68
2021/12/03 10:21:24;;;;;;;4.70;3.65;;;3.80;99.90;;;;;;5054414;28;20230;-68
2021/12/03 10:29:39;;;;;;;6.50;4.15;;;3.80;99.90;;;;;;5054677;28;20192;-68
2021/12/03 10:32:30;;;;;;;5.65;4.10;;;3.90;99.90;;;;;;5054621;28;20223;-68
2021/12/03 10:40:53;;;;;;;6.93;4.20;;;4.00;99.90;;;;;;5054110;28;20215;-68
2021/12/03 10:43:45;;;;;;;5.50;4.20;;;4.00;99.90;;;;;;5054445;28;20630;-68
2021/12/03 10:46:32;;;;;;;5.50;3.65;;;4.00;99.90;;;;;;5054218;28;20231;-68
2021/12/03 10:49:09;;;;;;;14.88;8.13;;;4.00;99.90;;;;;;5054388;28;20199;-68
2021/12/03 10:54:40;;;;;;;4.80;3.88;;;4.00;99.90;;;;;;5054022;28;20634;-67
2021/12/03 11:08:32;;;;;;;4.45;3.65;;;4.00;99.90;;;;;;5054056;28;20206;-68
2021/12/03 11:34:24;;;;;;;7.00;4.82;;;4.70;99.90;;;;;;5089948;28;20596;-67
2021/12/03 11:40:06;;;;;;;5.32;4.10;;;5.00;99.90;;;;;;5090215;28;20198;-67
2021/12/03 13:15:30;;;;;;;4.13;3.70;;;5.50;99.90;;;;;;5090052;28;20568;-67
2021/12/03 14:46:17;;;;;;;3.63;3.10;;;5.20;99.90;;;;;;5090862;28;20194;-68
2021/12/03 14:48:54;;;;;;;7.63;4.30;;;5.10;99.90;;;;;;5091060;28;20206;-67
2021/12/03 14:57:20;;;;;;;3.90;3.20;;;4.90;99.90;;;;;;5091059;28;20193;-67
2021/12/03 15:00:03;;;;;;;5.32;3.40;;;4.90;99.90;;;;;;5077769;28;20235;-67
2021/12/03 15:02:48;;;;;;;3.75;3.35;;;4.90;99.90;;;;;;5090858;28;20202;-67
2021/12/03 15:08:04;;;;;;;5.05;3.05;;;4.90;99.90;;;;;;5085282;28;20194;-67
2021/12/03 15:10:40;;;;;;;3.08;2.78;;;5.00;99.90;;;;;;5090594;28;20226;-67
2021/12/03 15:27:22;;;;;;;3.22;2.92;;;4.40;99.90;;;;;;5090505;28;20201;-67
2021/12/03 15:32:42;;;;;;;4.00;2.90;;;4.40;99.90;;;;;;5063901;28;20277;-67
2021/12/03 15:35:13;;;;;;;2.45;2.25;;;4.40;99.90;;;;;;5089922;28;20198;-67
2021/12/03 15:57:17;;;;;;;4.40;3.40;;;4.20;99.90;;;;;;5076067;28;20287;-67
2021/12/03 16:05:43;;;;;;;4.05;2.83;;;4.10;99.90;;;;;;5075808;28;20202;-67
2021/12/03 16:08:16;;;;;;;3.33;3.03;;;4.00;99.90;;;;;;5076159;28;20297;-67
2021/12/03 16:10:52;;;;;;;6.55;4.18;;;4.00;99.90;;;;;;5076341;28;20235;-67
2021/12/03 16:13:37;;;;;;;5.90;3.63;;;3.90;99.90;;;;;;5076169;28;20206;-67
2021/12/03 16:21:47;;;;;;;3.47;3.00;;;4.00;99.90;;;;;;5076028;28;20353;-68
2021/12/03 16:43:46;;;;;;;3.17;2.88;;;3.90;99.90;;;;;;5075205;28;20218;-67
2021/12/03 16:46:24;;;;;;;4.15;3.70;;;3.90;99.90;;;;;;5075452;28;20206;-67
2021/12/03 16:51:41;;;;;;;3.97;3.20;;;4.00;99.90;;;;;;5076231;28;20218;-67
2021/12/03 16:54:10;;;;;;;4.10;3.45;;;4.00;99.90;;;;;;5077235;28;20199;-67
2021/12/03 16:56:42;;;;;;;3.00;2.70;;;4.10;99.90;;;;;;5075719;28;20622;-67
2021/12/03 16:59:09;;;;;;;3.50;3.20;;;4.10;99.90;;;;;;5076104;28;20238;-67
2021/12/03 17:01:40;;;;;;;4.38;3.20;;;4.10;99.90;;;;;;5075407;28;20313;-67
2021/12/03 17:04:16;;;;;;;4.70;3.60;;;4.10;99.90;;;;;;5074812;28;20218;-67
2021/12/03 17:13:09;;;;;;;3.78;2.80;;;4.20;99.90;;;;;;5070580;28;20234;-68
2021/12/03 17:49:01;;;;;;;10.07;6.85;;;4.20;99.90;;;;;;5008419;28;20229;-67
2021/12/03 17:56:54;;;;;;;10.00;5.90;;;4.10;99.90;;;;;;5067411;28;20198;-67
2021/12/03 17:59:25;;;;;;;10.55;6.32;;;4.10;99.90;;;;;;5069942;28;20560;-68
2021/12/03 18:01:56;;;;;;;9.25;5.40;;;4.10;99.90;;;;;;5069919;28;20276;-68
2021/12/03 18:07:20;;;;;;;7.00;5.85;;;4.10;99.90;;;;;;5056813;28;20256;-67
2021/12/03 18:10:02;;;;;;;7.53;5.22;;;4.10;99.90;;;;;;5069485;28;20223;-68
2021/12/03 18:18:33;;;;;;;5.18;4.30;;;4.10;99.90;;;;;;5069455;28;20198;-67
2021/12/03 18:43:31;;;;;;;3.95;3.55;;;4.00;99.90;;;;;;5055844;28;20222;-67
2021/12/03 18:46:19;;;;;;;4.60;4.18;;;3.90;99.90;;;;;;5055460;28;20199;-68
2021/12/03 18:51:44;;;;;;;5.30;4.30;;;4.00;99.90;;;;;;5055302;28;20218;-67
2021/12/03 18:56:55;;;;;;;5.38;4.05;;;4.10;99.90;;;;;;5055561;28;20661;-68
2021/12/03 18:59:25;;;;;;;5.25;4.72;;;4.10;99.90;;;;;;5055557;28;20195;-68
2021/12/03 19:01:52;;;;;;;5.90;4.85;;;4.10;99.90;;;;;;5055258;28;20774;-67
2021/12/03 19:04:25;;;;;;;5.82;4.35;;;4.20;99.90;;;;;;5055500;28;20200;-67
2021/12/03 19:06:57;;;;;;;5.13;4.00;;;4.10;99.90;;;;;;5055487;28;20561;-68
2021/12/03 19:09:25;;;;;;;11.48;9.02;;;4.20;99.90;;;;;;5054979;28;20223;-68
2021/12/03 19:11:59;;;;;;;7.68;5.20;;;4.20;99.90;;;;;;5055386;28;20591;-67
2021/12/03 19:14:28;;;;;;;5.47;4.55;;;4.30;99.90;;;;;;5055096;28;20606;-68
2021/12/03 19:16:55;;;;;;;4.13;3.72;;;4.30;99.90;;;;;;5055130;28;20241;-68
2021/12/03 19:19:24;;;;;;;4.57;4.13;;;4.30;99.90;;;;;;5055053;28;20257;-68
2021/12/03 19:21:53;;;;;;;5.47;4.30;;;4.40;99.90;;;;;;5054989;28;20249;-68
2021/12/03 19:24:20;;;;;;;6.28;4.13;;;4.30;99.90;;;;;;5055097;28;20302;-67
2021/12/03 19:26:47;;;;;;;6.57;4.43;;;4.30;99.90;;;;;;5055049;28;20207;-68
2021/12/03 19:29:16;;;;;;;7.95;4.13;;;4.40;99.70;;;;;;5054907;28;20223;-68
2021/12/03 19:31:47;;;;;;;5.45;4.03;;;4.40;99.90;;;;;;5053940;28;20227;-68
2021/12/03 19:34:14;;;;;;;6.45;4.82;;;4.30;99.90;;;;;;5054951;28;20187;-68
2021/12/03 19:36:44;;;;;;;4.32;3.90;;;4.30;99.90;;;;;;5054742;28;20203;-68
2021/12/03 19:39:15;;;;;;;7.18;4.20;;;4.30;99.90;;;;;;5054873;28;20341;-68
2021/12/03 19:41:46;;;;;;;5.00;4.50;;;4.20;99.90;;;;;;5054750;28;20259;-68
2021/12/03 19:44:16;;;;;;;4.72;4.10;;;4.30;99.90;;;;;;5054858;28;20286;-68
2021/12/03 19:46:45;;;;;;;5.88;4.43;;;4.20;99.90;;;;;;5054535;28;20257;-68
2021/12/03 19:49:17;;;;;;;5.75;4.68;;;4.30;99.90;;;;;;5054609;28;20250;-68
2021/12/03 19:51:48;;;;;;;4.75;4.00;;;4.30;99.90;;;;;;5054685;28;20314;-67
2021/12/03 19:54:17;;;;;;;6.20;4.45;;;4.30;99.90;;;;;;5054448;28;20302;-68
2021/12/03 19:56:44;;;;;;;6.20;4.55;;;4.30;99.90;;;;;;5054325;28;20199;-68